createdAt,value
2023-05-17T00:00:21.948Z,11.27
2023-05-17T00:03:17.505Z,11.26
2023-05-17T00:06:08.308Z,11.24
2023-05-17T00:08:54.878Z,11.20
2023-05-17T00:11:41.833Z,11.15
2023-05-17T00:14:28.290Z,11.09
2023-05-17T00:17:14.933Z,11.04
2023-05-17T00:20:04.208Z,11.02
2023-05-17T00:22:50.821Z,11.04
2023-05-17T00:25:37.285Z,11.06
2023-05-17T00:28:24.140Z,11.06
2023-05-17T00:31:10.533Z,11.05
2023-05-17T00:33:57.129Z,11.03
2023-05-17T00:36:43.698Z,11.00
2023-05-17T00:39:30.166Z,10.99
2023-05-17T00:42:17.715Z,11.00
2023-05-17T00:45:05.048Z,11.01
2023-05-17T00:47:51.688Z,10.96
2023-05-17T00:50:38.082Z,10.92
2023-05-17T00:53:25.637Z,10.83
2023-05-17T00:56:13.563Z,10.84
2023-05-17T00:59:00.666Z,10.82
2023-05-17T01:01:48.285Z,10.82
2023-05-17T01:04:36.509Z,10.81
2023-05-17T01:07:23.172Z,10.80
2023-05-17T01:10:10.418Z,10.79
2023-05-17T01:13:06.211Z,10.76
2023-05-17T01:16:19.149Z,10.74
2023-05-17T01:19:30.507Z,10.64
2023-05-17T01:22:26.542Z,10.65
2023-05-17T01:25:52.243Z,10.62
2023-05-17T01:28:39.336Z,10.61
2023-05-17T01:31:26.859Z,10.56
2023-05-17T01:34:25.975Z,10.54
2023-05-17T01:37:12.448Z,10.50
2023-05-17T01:39:59.438Z,10.48
2023-05-17T01:42:51.004Z,10.50
2023-05-17T01:45:47.516Z,10.47
2023-05-17T01:48:49.647Z,10.43
2023-05-17T01:51:46.221Z,10.40
2023-05-17T01:54:39.259Z,10.36
2023-05-17T01:57:32.672Z,10.36
2023-05-17T02:00:19.763Z,10.35
2023-05-17T02:03:06.608Z,10.30
2023-05-17T02:05:53.131Z,10.22
2023-05-17T02:08:39.841Z,10.18
2023-05-17T02:11:26.559Z,10.16
2023-05-17T02:14:13.173Z,10.12
2023-05-17T02:17:00.125Z,10.07
2023-05-17T02:19:46.437Z,10.02
2023-05-17T02:22:33.158Z,9.94
2023-05-17T02:25:20.010Z,9.94
2023-05-17T02:28:06.563Z,9.90
2023-05-17T02:30:56.573Z,9.83
2023-05-17T02:33:43.906Z,9.75
2023-05-17T02:36:30.805Z,9.70
2023-05-17T02:39:17.176Z,9.68
2023-05-17T02:42:03.971Z,9.65
2023-05-17T02:44:53.038Z,9.62
2023-05-17T02:47:39.985Z,9.58
2023-05-17T02:50:26.800Z,9.59
2023-05-17T02:53:13.423Z,9.57
2023-05-17T02:56:00.486Z,9.53
2023-05-17T02:58:47.039Z,9.46
2023-05-17T03:01:36.244Z,9.45
2023-05-17T03:04:23.287Z,9.45
2023-05-17T03:07:10.501Z,9.46
2023-05-17T03:09:57.635Z,9.43
2023-05-17T03:12:46.050Z,9.42
2023-05-17T03:15:33.916Z,9.38
2023-05-17T03:18:20.720Z,9.35
2023-05-17T03:21:07.727Z,9.35
2023-05-17T03:23:54.541Z,9.35
2023-05-17T03:26:41.693Z,9.36
2023-05-17T03:29:32.169Z,9.33
2023-05-17T03:32:18.756Z,9.32
2023-05-17T03:35:05.878Z,9.31
2023-05-17T03:37:52.814Z,9.31
2023-05-17T03:40:39.359Z,9.29
2023-05-17T03:43:26.346Z,9.28
2023-05-17T03:46:12.851Z,9.24
2023-05-17T03:49:00.015Z,9.23
2023-05-17T03:51:47.022Z,9.28
2023-05-17T03:54:33.741Z,9.29
2023-05-17T03:57:21.700Z,9.28
2023-05-17T04:00:12.112Z,9.23
2023-05-17T04:03:04.646Z,9.21
2023-05-17T04:05:51.177Z,9.21
2023-05-17T04:08:40.763Z,9.21
2023-05-17T04:11:27.836Z,9.28
2023-05-17T04:14:15.414Z,9.28
2023-05-17T04:17:02.770Z,9.30
2023-05-17T04:19:50.005Z,9.33
2023-05-17T04:22:36.844Z,9.35
2023-05-17T04:25:24.776Z,9.48
2023-05-17T04:28:11.798Z,9.52
2023-05-17T04:30:58.518Z,9.54
2023-05-17T04:33:45.381Z,9.62
2023-05-17T04:36:33.942Z,9.67
2023-05-17T04:39:21.209Z,9.80
2023-05-17T04:42:09.272Z,9.89
2023-05-17T04:44:58.339Z,9.90
2023-05-17T04:47:45.838Z,9.92
2023-05-17T04:50:34.502Z,9.91
2023-05-17T04:53:21.571Z,9.96
2023-05-17T04:56:09.069Z,9.97
2023-05-17T04:58:56.130Z,9.98
2023-05-17T05:01:42.836Z,9.96
2023-05-17T05:04:30.141Z,9.94
2023-05-17T05:07:16.625Z,9.96
2023-05-17T05:10:04.001Z,9.97
2023-05-17T05:12:50.877Z,9.99
2023-05-17T05:15:38.086Z,10.05
2023-05-17T05:18:24.891Z,10.04
2023-05-17T05:21:11.759Z,10.01
2023-05-17T05:23:58.652Z,10.00
2023-05-17T05:26:49.315Z,9.99
2023-05-17T05:29:36.648Z,9.94
2023-05-17T05:32:23.149Z,9.94
2023-05-17T05:35:09.848Z,10.01
2023-05-17T05:37:57.363Z,10.03
2023-05-17T05:40:47.155Z,10.09
2023-05-17T05:43:36.237Z,10.21
2023-05-17T05:46:22.768Z,10.27
2023-05-17T05:49:09.439Z,10.43
2023-05-17T05:51:56.411Z,10.47
2023-05-17T05:54:45.685Z,10.50
2023-05-17T05:57:31.912Z,10.60
2023-05-17T06:00:19.538Z,10.69
2023-05-17T06:03:07.319Z,10.67
2023-05-17T06:05:54.123Z,10.71
2023-05-17T06:08:40.784Z,10.74
2023-05-17T06:11:27.448Z,10.77
2023-05-17T06:14:14.283Z,10.87
2023-05-17T06:17:00.901Z,11.06
2023-05-17T06:19:49.313Z,11.31
2023-05-17T06:22:35.737Z,11.44
2023-05-17T06:25:22.340Z,11.57
2023-05-17T06:28:09.380Z,11.70
2023-05-17T06:30:56.280Z,11.92
2023-05-17T06:33:42.999Z,12.04
2023-05-17T06:36:32.282Z,12.21
2023-05-17T06:39:19.950Z,12.37
2023-05-17T06:42:07.335Z,12.51
2023-05-17T06:44:55.672Z,12.75
2023-05-17T06:47:42.209Z,12.73
2023-05-17T06:50:29.355Z,12.79
2023-05-17T06:53:16.401Z,12.86
2023-05-17T06:56:04.118Z,12.86
2023-05-17T06:58:50.775Z,12.78
2023-05-17T07:01:37.236Z,12.78
2023-05-17T07:04:23.598Z,12.84
2023-05-17T07:07:11.580Z,12.85
2023-05-17T07:09:58.266Z,12.90
2023-05-17T07:12:45.031Z,12.98
2023-05-17T07:15:33.558Z,13.12
2023-05-17T07:18:22.511Z,13.14
2023-05-17T07:21:09.718Z,13.10
2023-05-17T07:23:56.950Z,13.08
2023-05-17T07:26:43.715Z,13.33
2023-05-17T07:29:30.514Z,13.56
2023-05-17T07:32:18.197Z,13.67
2023-05-17T07:35:04.790Z,13.74
2023-05-17T07:37:51.468Z,13.84
2023-05-17T07:40:37.827Z,14.04
2023-05-17T07:43:24.603Z,14.17
2023-05-17T07:46:10.938Z,14.32
2023-05-17T07:48:58.940Z,14.50
2023-05-17T07:51:45.890Z,14.71
2023-05-17T07:54:32.647Z,14.94
2023-05-17T07:57:19.449Z,15.22
2023-05-17T08:00:06.735Z,15.18
2023-05-17T08:02:57.832Z,15.06
2023-05-17T08:05:45.005Z,15.19
2023-05-17T08:08:31.603Z,15.51
2023-05-17T08:11:18.622Z,15.46
2023-05-17T08:14:05.725Z,15.43
2023-05-17T08:16:52.476Z,15.91
2023-05-17T08:19:39.137Z,15.98
2023-05-17T08:22:26.495Z,16.16
2023-05-17T08:25:13.237Z,16.54
2023-05-17T08:27:59.909Z,16.52
2023-05-17T08:30:48.601Z,16.60
2023-05-17T08:33:37.332Z,16.42
2023-05-17T08:36:24.551Z,16.33
2023-05-17T08:39:11.577Z,16.20
2023-05-17T08:41:59.744Z,16.34
2023-05-17T08:44:47.377Z,16.66
2023-05-17T08:47:37.747Z,16.60
2023-05-17T08:50:26.526Z,16.72
2023-05-17T08:53:13.908Z,16.61
2023-05-17T08:56:02.489Z,16.53
2023-05-17T08:58:57.092Z,16.50
2023-05-17T09:01:47.926Z,16.33
2023-05-17T09:04:34.376Z,16.17
2023-05-17T09:07:24.298Z,16.20
2023-05-17T09:10:15.384Z,16.42
2023-05-17T09:13:02.639Z,16.62
2023-05-17T09:15:50.033Z,16.56
2023-05-17T09:18:36.915Z,16.43
2023-05-17T09:21:24.835Z,16.25
2023-05-17T09:24:11.776Z,16.31
2023-05-17T09:27:04.384Z,16.45
2023-05-17T09:29:51.081Z,16.52
2023-05-17T09:32:47.048Z,16.54
2023-05-17T09:35:35.832Z,16.51
2023-05-17T09:38:27.644Z,16.51
2023-05-17T09:41:14.364Z,16.56
2023-05-17T09:44:02.468Z,16.65
2023-05-17T09:46:48.900Z,16.64
2023-05-17T09:49:35.906Z,16.66
2023-05-17T09:52:24.071Z,16.62
2023-05-17T09:55:15.446Z,16.74
2023-05-17T09:58:05.130Z,16.70
2023-05-17T10:00:56.379Z,16.71
2023-05-17T10:03:43.631Z,16.77
2023-05-17T10:06:44.073Z,16.87
2023-05-17T10:09:37.227Z,16.95
2023-05-17T10:12:25.019Z,16.99
2023-05-17T10:15:12.839Z,17.03
2023-05-17T10:18:00.796Z,17.11
2023-05-17T10:20:49.122Z,17.24
2023-05-17T10:23:38.751Z,17.31
2023-05-17T10:26:25.697Z,17.29
2023-05-17T10:29:12.029Z,17.30
2023-05-17T10:31:58.826Z,17.37
2023-05-17T10:34:49.597Z,17.37
2023-05-17T10:37:44.617Z,17.14
2023-05-17T10:40:32.278Z,17.17
2023-05-17T10:43:19.963Z,17.21
2023-05-17T10:46:22.997Z,17.33
2023-05-17T10:49:11.575Z,17.54
2023-05-17T10:51:59.905Z,17.79
2023-05-17T10:54:48.765Z,17.99
2023-05-17T11:00:31.387Z,17.96
2023-05-17T11:03:21.515Z,18.11
2023-05-17T11:06:21.967Z,18.21
2023-05-17T11:09:17.545Z,18.15
2023-05-17T11:12:09.567Z,18.05
2023-05-17T11:14:56.652Z,17.98
2023-05-17T11:17:42.986Z,17.85
2023-05-17T11:20:33.525Z,17.64
2023-05-17T11:23:22.567Z,17.46
2023-05-17T11:26:33.280Z,17.30
2023-05-17T11:29:19.999Z,17.14
2023-05-17T11:32:09.588Z,17.26
2023-05-17T11:34:56.666Z,17.66
2023-05-17T11:37:44.705Z,17.95
2023-05-17T11:40:32.586Z,17.87
2023-05-17T11:43:31.064Z,17.76
2023-05-17T11:46:20.953Z,17.77
2023-05-17T11:49:08.018Z,17.65
2023-05-17T11:51:55.588Z,17.58
2023-05-17T11:54:43.036Z,17.68
2023-05-17T11:57:33.976Z,17.93
2023-05-17T12:00:28.097Z,18.16
2023-05-17T12:03:23.164Z,18.28
2023-05-17T12:06:13.248Z,18.41
2023-05-17T12:09:00.402Z,18.49
2023-05-17T12:11:47.959Z,18.55
2023-05-17T12:14:34.652Z,18.22
2023-05-17T12:17:29.177Z,17.78
2023-05-17T12:20:16.461Z,17.59
2023-05-17T12:23:02.850Z,17.82
2023-05-17T12:25:49.825Z,18.14
2023-05-17T12:28:38.958Z,18.38
2023-05-17T12:31:48.885Z,18.40
2023-05-17T12:34:36.112Z,18.60
2023-05-17T12:37:23.040Z,18.80
2023-05-17T12:40:12.164Z,18.95
2023-05-17T12:43:06.256Z,18.90
2023-05-17T12:45:53.107Z,18.80
2023-05-17T12:48:41.926Z,18.60
2023-05-17T12:51:28.828Z,18.56
2023-05-17T12:54:26.661Z,18.79
2023-05-17T12:57:16.314Z,18.89
2023-05-17T13:00:07.788Z,18.87
2023-05-17T13:02:54.344Z,18.74
2023-05-17T13:05:51.014Z,18.74
2023-05-17T13:08:37.653Z,18.81
2023-05-17T13:11:25.404Z,18.84
2023-05-17T13:14:14.667Z,18.69
2023-05-17T13:17:05.212Z,18.61
2023-05-17T13:19:51.966Z,18.69
2023-05-17T13:22:46.434Z,18.83
2023-05-17T13:25:32.737Z,18.94
2023-05-17T13:28:19.587Z,19.12
2023-05-17T13:31:06.156Z,19.34
2023-05-17T13:33:53.006Z,19.75
2023-05-17T13:36:39.966Z,20.18
2023-05-17T13:39:26.729Z,20.40
2023-05-17T13:42:14.430Z,20.46
2023-05-17T13:45:01.697Z,20.44
2023-05-17T13:47:48.417Z,20.28
2023-05-17T13:50:36.043Z,19.92
2023-05-17T13:53:22.481Z,19.60
2023-05-17T13:56:09.006Z,19.07
2023-05-17T13:58:55.611Z,18.75
2023-05-17T14:01:43.636Z,18.54
2023-05-17T14:04:30.539Z,18.21
2023-05-17T14:07:16.782Z,17.91
2023-05-17T14:10:04.931Z,17.49
2023-05-17T14:12:51.966Z,17.30
2023-05-17T14:15:39.991Z,17.14
2023-05-17T14:18:26.932Z,17.05
2023-05-17T14:21:13.515Z,17.00
2023-05-17T14:24:00.184Z,16.97
2023-05-17T14:26:46.718Z,17.04
2023-05-17T14:29:33.259Z,17.00
2023-05-17T14:32:20.087Z,16.90
2023-05-17T14:35:07.961Z,16.85
2023-05-17T14:37:54.985Z,16.85
2023-05-17T14:40:41.921Z,16.77
2023-05-17T14:43:28.870Z,16.65
2023-05-17T14:46:15.277Z,16.50
2023-05-17T14:49:02.156Z,16.39
2023-05-17T14:51:48.924Z,16.23
2023-05-17T14:54:36.657Z,16.24
2023-05-17T14:57:23.470Z,16.23
2023-05-17T15:00:11.373Z,16.06
2023-05-17T15:02:58.269Z,15.91
2023-05-17T15:05:45.143Z,15.71
2023-05-17T15:08:31.872Z,15.78
2023-05-17T15:11:18.622Z,15.68
2023-05-17T15:14:06.159Z,15.54
2023-05-17T15:16:53.055Z,15.39
2023-05-17T15:19:39.923Z,15.35
2023-05-17T15:22:26.581Z,15.36
2023-05-17T15:25:13.348Z,15.30
2023-05-17T15:28:00.187Z,15.16
2023-05-17T15:30:47.648Z,15.06
2023-05-17T15:33:34.373Z,15.09
2023-05-17T15:36:21.371Z,15.17
2023-05-17T15:39:08.804Z,15.21
2023-05-17T15:41:55.746Z,15.23
2023-05-17T15:44:42.707Z,15.12
2023-05-17T15:47:42.590Z,15.04
2023-05-17T15:50:30.041Z,15.06
2023-05-17T15:53:16.469Z,15.16
2023-05-17T15:56:03.621Z,15.28
2023-05-17T15:58:51.858Z,15.50
2023-05-17T16:01:41.838Z,15.72
2023-05-17T16:04:37.950Z,15.95
2023-05-17T16:07:30.205Z,16.15
2023-05-17T16:10:17.908Z,16.32
2023-05-17T16:13:06.069Z,16.49
2023-05-17T16:15:58.048Z,16.69
2023-05-17T16:18:47.417Z,16.80
2023-05-17T16:21:33.952Z,16.81
2023-05-17T16:24:21.572Z,16.62
2023-05-17T16:27:08.472Z,16.70
2023-05-17T16:29:55.247Z,16.91
2023-05-17T16:32:42.370Z,16.87
2023-05-17T16:35:29.129Z,16.55
2023-05-17T16:38:16.665Z,16.28
2023-05-17T16:41:03.686Z,16.13
2023-05-17T16:43:50.397Z,15.98
2023-05-17T16:46:37.880Z,15.70
2023-05-17T16:49:24.862Z,15.44
2023-05-17T16:52:11.622Z,15.18
2023-05-17T16:55:03.732Z,14.99
2023-05-17T16:57:51.499Z,14.78
2023-05-17T17:00:38.146Z,14.63
2023-05-17T17:03:24.853Z,14.49
2023-05-17T17:06:11.784Z,14.28
2023-05-17T17:08:58.763Z,14.14
2023-05-17T17:11:46.457Z,14.03
2023-05-17T17:14:32.835Z,13.88
2023-05-17T17:17:19.503Z,13.75
2023-05-17T17:20:09.086Z,13.58
2023-05-17T17:22:56.081Z,13.40
2023-05-17T17:25:42.569Z,13.27
2023-05-17T17:28:37.847Z,13.18
2023-05-17T17:31:25.277Z,13.03
2023-05-17T17:34:11.955Z,12.87
2023-05-17T17:36:58.492Z,12.72
2023-05-17T17:39:45.030Z,12.58
2023-05-17T17:42:32.372Z,12.44
2023-05-17T17:45:19.168Z,12.37
2023-05-17T17:48:05.935Z,12.23
2023-05-17T17:50:52.595Z,12.14
2023-05-17T17:53:41.505Z,12.02
2023-05-17T17:56:27.831Z,11.85
2023-05-17T17:59:14.402Z,11.76
2023-05-17T18:02:01.223Z,11.62
2023-05-17T18:04:47.918Z,11.57
2023-05-17T18:07:34.330Z,11.50
2023-05-17T18:10:20.908Z,11.40
2023-05-17T18:13:07.316Z,11.29
2023-05-17T18:15:53.808Z,11.21
2023-05-17T18:18:40.933Z,11.11
2023-05-17T18:21:29.361Z,11.01
2023-05-17T18:24:16.176Z,10.85
2023-05-17T18:27:03.043Z,10.82
2023-05-17T18:29:49.602Z,10.76
2023-05-17T18:32:36.395Z,10.69
2023-05-17T18:35:23.355Z,10.61
2023-05-17T18:38:10.251Z,10.53
2023-05-17T18:40:56.894Z,10.44
2023-05-17T18:43:43.929Z,10.35
2023-05-17T18:46:30.692Z,10.29
2023-05-17T18:49:18.181Z,10.23
2023-05-17T18:52:05.551Z,10.15
2023-05-17T18:54:52.233Z,10.08
2023-05-17T18:57:38.696Z,9.95
2023-05-17T19:00:25.429Z,9.93
2023-05-17T19:03:12.385Z,9.83
2023-05-17T19:05:59.297Z,9.80
2023-05-17T19:08:46.061Z,9.73
2023-05-17T19:11:33.003Z,9.65
2023-05-17T19:14:19.540Z,9.59
2023-05-17T19:17:06.354Z,9.53
2023-05-17T19:19:52.878Z,9.46
2023-05-17T19:22:39.728Z,9.40
2023-05-17T19:25:26.905Z,9.34
2023-05-17T19:28:13.657Z,9.30
2023-05-17T19:31:01.288Z,9.24
2023-05-17T19:33:47.789Z,9.22
2023-05-17T19:36:34.334Z,9.20
2023-05-17T19:39:23.306Z,9.18
2023-05-17T19:42:09.466Z,9.17
2023-05-17T19:44:56.079Z,9.11
2023-05-17T19:47:43.082Z,9.10
2023-05-17T19:50:29.912Z,9.03
2023-05-17T19:53:16.520Z,9.04
2023-05-17T19:56:05.837Z,8.99
2023-05-17T19:58:52.872Z,8.95
2023-05-17T20:01:40.219Z,8.90
2023-05-17T20:04:26.809Z,8.85
2023-05-17T20:07:15.161Z,8.82
2023-05-17T20:10:01.888Z,8.77
2023-05-17T20:12:48.791Z,8.74
2023-05-17T20:15:35.647Z,8.70
2023-05-17T20:18:23.258Z,8.69
2023-05-17T20:21:12.772Z,8.66
2023-05-17T20:24:05.396Z,8.63
2023-05-17T20:26:52.408Z,8.59
2023-05-17T20:29:39.793Z,8.56
2023-05-17T20:32:26.405Z,8.51
2023-05-17T20:35:12.814Z,8.43
2023-05-17T20:37:59.552Z,8.38
2023-05-17T20:40:46.054Z,8.39
2023-05-17T20:43:34.578Z,8.35
2023-05-17T20:46:21.545Z,8.30
2023-05-17T20:49:09.959Z,8.27
2023-05-17T20:52:04.476Z,8.23
2023-05-17T20:54:51.760Z,8.22
2023-05-17T20:57:38.302Z,8.20
2023-05-17T21:00:25.722Z,8.19
2023-05-17T21:03:13.050Z,8.17
2023-05-17T21:06:05.339Z,8.14
2023-05-17T21:08:52.800Z,8.08
2023-05-17T21:11:39.498Z,8.03
2023-05-17T21:14:26.192Z,7.98
2023-05-17T21:17:12.701Z,7.94
2023-05-17T21:19:59.391Z,7.90
2023-05-17T21:22:45.993Z,7.87
2023-05-17T21:25:34.133Z,7.84
2023-05-17T21:28:21.148Z,7.81
2023-05-17T21:31:08.332Z,7.74
2023-05-17T21:33:55.150Z,7.75
2023-05-17T21:36:41.399Z,7.71
2023-05-17T21:39:28.031Z,7.66
2023-05-17T21:42:14.468Z,7.60
2023-05-17T21:45:01.176Z,7.55
2023-05-17T21:47:47.592Z,7.49
2023-05-17T21:50:34.814Z,7.46
2023-05-17T21:53:21.744Z,7.43
2023-05-17T21:56:08.026Z,7.35
2023-05-17T21:58:55.002Z,7.33
2023-05-17T22:01:41.857Z,7.26
2023-05-17T22:04:28.367Z,7.16
2023-05-17T22:07:15.199Z,7.07
2023-05-17T22:10:02.387Z,7.01
2023-05-17T22:12:50.411Z,6.97
2023-05-17T22:15:37.374Z,6.94
2023-05-17T22:18:24.062Z,6.93
2023-05-17T22:21:14.608Z,6.93
2023-05-17T22:24:01.321Z,6.90
2023-05-17T22:26:47.919Z,6.85
2023-05-17T22:29:34.423Z,6.81
2023-05-17T22:32:21.500Z,6.76
2023-05-17T22:35:08.454Z,6.68
2023-05-17T22:37:55.184Z,6.61
2023-05-17T22:40:41.896Z,6.59
2023-05-17T22:43:28.358Z,6.57
2023-05-17T22:46:16.089Z,6.54
2023-05-17T22:49:02.279Z,6.48
2023-05-17T22:51:48.946Z,6.44
2023-05-17T22:54:37.076Z,6.42
2023-05-17T22:57:23.894Z,6.39
2023-05-17T23:00:11.681Z,6.36
2023-05-17T23:02:58.581Z,6.36
2023-05-17T23:05:45.862Z,6.36
2023-05-17T23:08:32.138Z,6.34
2023-05-17T23:11:20.061Z,6.28
2023-05-17T23:14:07.020Z,6.20
2023-05-17T23:16:53.582Z,6.15
2023-05-17T23:19:40.620Z,6.10
2023-05-17T23:22:31.303Z,6.09
2023-05-17T23:25:17.869Z,6.12
2023-05-17T23:28:04.699Z,6.09
2023-05-17T23:30:53.716Z,6.03
2023-05-17T23:33:42.609Z,5.96
2023-05-17T23:36:28.973Z,5.91
2023-05-17T23:39:15.773Z,5.89
2023-05-17T23:42:02.469Z,5.81
2023-05-17T23:44:48.990Z,5.72
2023-05-17T23:47:35.897Z,5.64
2023-05-17T23:50:22.429Z,5.55
2023-05-17T23:53:09.747Z,5.50
2023-05-17T23:55:56.561Z,5.47
2023-05-17T23:58:44.047Z,5.48
